• Join FlightAware (Why Join?)
  • Login
  • US Flag 
11:22AM EDT


 

Airport Tracker/Info


-or-


 

Live Flight TrackerFlight Track Log ✈ EJM685 ✈ 24-Nov-2013 ✈ KBWI - KTEB

Flight Track Log - Related Links

Times and Time Zones

All times are in EST time to prevent confusion due to time zone crossing. See the EJM685 flight status page for this flight to view local times or setup timezone preferences in your user account.

Time Position Orientation Groundspeed Altitude Reporting Facility
EST Latitude Longitude Course Direction KTS MPH feet Rate Location/Type
05:16PM 39.1644 -76.7347 168° South 189 217 3,200  Level Washington Center
05:17PM 39.1042 -76.7178 168° South 282 325 6,600 2,940 Climbing Washington Center
05:18PM 39.1069 -76.6189 88° East 233 268 9,200 2,640 Climbing Washington Center
05:19PM 39.1203 -76.5119 81° East 264 304 12,000 3,240 Climbing Washington Center
05:20PM 39.1358 -76.3836 81° East 289 333 15,700 2,520 Climbing Washington Center
05:21PM 39.1514 -76.2472 82° East 342 394 17,000 660 Climbing Washington Center
05:22PM 39.2100 -76.1622 48° Northeast 317 365 17,100 -60 Climbing Washington Center
05:23PM 39.2831 -76.1439 11° North 262 302 16,900 -120 Descending Washington Center
05:24PM 39.3519 -76.1203 15° North 251 289 16,900  Level Washington Center
05:25PM 39.4167 -76.0778 27° Northeast 251 289 16,900  Level Washington Center
05:26PM 39.4794 -76.0003 44° Northeast 273 314 16,900 -300 Level Washington Center
05:28PM 39.5833 -75.8667 45° Northeast 290 334 16,100 -720 Descending Philadelphia TRACON
05:29PM 39.6500 -75.7833 44° Northeast 297 342 14,800 -1,140 Descending Philadelphia TRACON
05:30PM 39.7000 -75.7167 46° Northeast 291 335 13,900 -960 Descending Philadelphia TRACON
05:31PM 39.7667 -75.6333 44° Northeast 278 320 13,000 -480 Descending Philadelphia TRACON
05:32PM 39.8167 -75.5833 38° Northeast 271 312 13,000  Level Philadelphia TRACON
05:33PM 39.8833 -75.5167 37° Northeast 274 315 13,000  Level Philadelphia TRACON
05:34PM 39.9500 -75.4500 37° Northeast 274 315 13,000  Level Philadelphia TRACON
05:35PM 40.0167 -75.4000 30° Northeast 272 313 13,000  Level Philadelphia TRACON
05:36PM 40.0667 -75.3500 37° Northeast 273 314 13,000  Level Philadelphia TRACON
05:37PM 40.1333 -75.2833 37° Northeast 271 312 13,000 -420 Level Philadelphia TRACON
05:38PM 40.2000 -75.2333 30° Northeast 262 302 12,200 -1,200 Descending Philadelphia TRACON
05:40PM 40.3167 -75.1167 37° Northeast 256 295 9,300 -1,380 Descending New York TRACON
05:41PM 40.3667 -75.0500 45° Northeast 254 292 7,900 -1,200 Descending New York TRACON
05:42PM 40.4167 -74.9833 45° Northeast 256 295 7,000 -960 Descending New York TRACON
05:43PM 40.4667 -74.9000 52° Northeast 257 296 5,900 -1,020 Descending New York TRACON
05:44PM 40.5000 -74.8333 57° Northeast 264 304 5,000 -1,080 Descending New York TRACON
05:45PM 40.5167 -74.7333 78° East 263 303 3,900 -960 Descending New York TRACON
05:46PM 40.5167 -74.6500 90° East 264 304 3,100 -480 Descending New York TRACON
05:47PM 40.5333 -74.5333 79° East 269 310 3,000 -60 Descending New York TRACON
05:48PM 40.5667 -74.4667 57° Northeast 250 288 3,000 -300 Level New York TRACON
05:49PM 40.6167 -74.4000 45° Northeast 247 284 2,500 -540 Descending New York TRACON
05:50PM 40.6667 -74.3333 45° Northeast 245 282 2,000 -300 Descending New York TRACON
05:51PM 40.7000 -74.2833 49° Northeast 205 236 2,000 -240 Level New York TRACON
05:52PM 40.7500 -74.2167 45° Northeast 172 198 1,600 -240 Descending New York TRACON
05:53PM 40.7667 -74.1833 57° Northeast 155 178 1,600 -120 Level New York TRACON
05:54PM 40.8000 -74.1333 49° Northeast 150 173 1,400 -180 Descending New York TRACON
05:55PM 40.8000 -74.0833 90° East 163 188 1,300 -420 Descending New York TRACON
05:56PM 40.8167 -74.0667 37° Northeast 124 143 600 -720 Descending New York TRACON
05:58PM 40.8500 -74.0500 47° Northeast  Level FlightAware Approximate
06:05PM 40.8501 -74.0608 47° Northeast  Level Estimated
06:06PM 40.8501 -74.0608 47° Northeast  Level Estimated
06:07PM 40.8501 -74.0608 47° Northeast  Level Estimated
06:08PM 40.8501 -74.0608 47° Northeast  Level Estimated
06:09PM 40.8501 -74.0608 47° Northeast  Level Estimated
06:10PM 40.8501 -74.0608 47° Northeast  Level Estimated
06:11PM 40.8501 -74.0608 47° Northeast  Level Estimated